createdAt,value
2018-05-04T00:02:09.743Z,4.70
2018-05-04T00:04:37.200Z,4.70
2018-05-04T00:07:04.673Z,4.70
2018-05-04T00:09:32.117Z,4.60
2018-05-04T00:11:59.570Z,4.50
2018-05-04T00:14:27.009Z,4.50
2018-05-04T00:16:54.464Z,4.40
2018-05-04T00:19:21.897Z,4.40
2018-05-04T00:21:50.212Z,4.30
2018-05-04T00:24:17.663Z,4.30
2018-05-04T00:26:45.164Z,4.30
2018-05-04T00:29:12.589Z,4.30
2018-05-04T00:31:40.030Z,4.30
2018-05-04T00:34:07.494Z,4.20
2018-05-04T00:36:34.944Z,4.20
2018-05-04T00:39:02.393Z,4.20
2018-05-04T00:41:30.597Z,4.10
2018-05-04T00:43:58.079Z,4.10
2018-05-04T00:46:25.517Z,4.10
2018-05-04T00:48:52.982Z,4.10
2018-05-04T00:51:20.458Z,4.10
2018-05-04T00:53:59.786Z,4.10
2018-05-04T00:56:27.232Z,4.00
2018-05-04T00:58:54.689Z,4.00
2018-05-04T01:01:22.129Z,4.00
2018-05-04T01:03:49.577Z,4.00
2018-05-04T01:06:17.034Z,3.90
2018-05-04T01:08:44.613Z,3.90
2018-05-04T01:11:12.816Z,3.90
2018-05-04T01:13:40.243Z,3.90
2018-05-04T01:16:07.713Z,3.90
2018-05-04T01:18:35.184Z,3.80
2018-05-04T01:21:02.638Z,3.80
2018-05-04T01:23:30.085Z,3.80
2018-05-04T01:25:57.533Z,3.80
2018-05-04T01:28:25.000Z,3.70
2018-05-04T01:30:52.453Z,3.70
2018-05-04T01:33:19.913Z,3.70
2018-05-04T01:35:47.365Z,3.60
2018-05-04T01:38:14.821Z,3.60
2018-05-04T01:40:42.282Z,3.50
2018-05-04T01:43:09.741Z,3.50
2018-05-04T01:45:37.217Z,3.50
2018-05-04T01:48:04.673Z,3.40
2018-05-04T01:50:32.119Z,3.40
2018-05-04T01:52:59.568Z,3.40
2018-05-04T01:55:27.023Z,3.40
2018-05-04T01:57:54.461Z,3.30
2018-05-04T02:00:21.992Z,3.30
2018-05-04T02:02:49.385Z,3.30
2018-05-04T02:05:16.853Z,3.30
2018-05-04T02:07:44.355Z,3.20
2018-05-04T02:10:11.765Z,3.20
2018-05-04T02:12:39.213Z,3.20
2018-05-04T02:15:06.675Z,3.20
2018-05-04T02:17:34.117Z,3.20
2018-05-04T02:20:01.593Z,3.10
2018-05-04T02:22:29.041Z,3.10
2018-05-04T02:24:56.493Z,3.10
2018-05-04T02:27:23.946Z,3.00
2018-05-04T02:29:51.421Z,3.00
2018-05-04T02:32:18.873Z,3.00
2018-05-04T02:34:46.332Z,3.00
2018-05-04T02:37:13.809Z,2.90
2018-05-04T02:39:41.328Z,2.90
2018-05-04T02:42:08.784Z,2.90
2018-05-04T02:44:36.256Z,2.80
2018-05-04T02:47:03.740Z,2.80
2018-05-04T02:49:31.237Z,2.80
2018-05-04T02:51:58.821Z,2.80
2018-05-04T02:54:26.292Z,2.80
2018-05-04T02:56:53.762Z,2.80
2018-05-04T02:59:21.258Z,2.70
2018-05-04T03:01:48.720Z,2.70
2018-05-04T03:04:16.237Z,2.70
2018-05-04T03:06:43.716Z,2.70
2018-05-04T03:09:11.946Z,2.70
2018-05-04T03:11:39.413Z,2.60
2018-05-04T03:14:06.884Z,2.60
2018-05-04T03:16:34.338Z,2.60
2018-05-04T03:19:01.807Z,2.60
2018-05-04T03:21:29.280Z,2.60
2018-05-04T03:23:56.736Z,2.50
2018-05-04T03:26:24.977Z,2.50
2018-05-04T03:28:52.420Z,2.50
2018-05-04T03:31:19.900Z,2.50
2018-05-04T03:33:47.357Z,2.40
2018-05-04T03:36:14.820Z,2.40
2018-05-04T03:38:42.288Z,2.40
2018-05-04T03:41:10.504Z,2.30
2018-05-04T03:43:37.984Z,2.30
2018-05-04T03:46:05.443Z,2.30
2018-05-04T03:48:32.912Z,2.30
2018-05-04T03:51:00.398Z,2.30
2018-05-04T03:53:27.852Z,2.20
2018-05-04T03:55:55.321Z,2.20
2018-05-04T03:58:34.453Z,2.20
2018-05-04T04:01:13.851Z,2.10
2018-05-04T04:03:53.014Z,2.10
2018-05-04T04:06:21.260Z,2.10
2018-05-04T04:08:48.736Z,2.10
2018-05-04T04:11:16.992Z,2.10
2018-05-04T04:13:44.508Z,2.10
2018-05-04T04:16:11.939Z,2.10
2018-05-04T04:18:40.184Z,2.20
2018-05-04T04:21:07.656Z,2.10
2018-05-04T04:23:35.136Z,2.20
2018-05-04T04:26:03.377Z,2.20
2018-05-04T04:28:31.711Z,2.20
2018-05-04T04:30:59.201Z,2.20
2018-05-04T04:33:27.451Z,2.20
2018-05-04T04:35:54.938Z,2.20
2018-05-04T04:38:22.389Z,2.20
2018-05-04T04:40:49.887Z,2.20
2018-05-04T04:43:18.129Z,2.30
2018-05-04T04:45:45.619Z,2.20
2018-05-04T04:48:13.099Z,2.20
2018-05-04T04:50:40.548Z,2.30
2018-05-04T04:53:08.023Z,2.30
2018-05-04T04:55:35.475Z,2.30
2018-05-04T04:58:02.949Z,2.30
2018-05-04T05:00:30.402Z,2.40
2018-05-04T05:02:57.901Z,2.40
2018-05-04T05:05:25.356Z,2.50
2018-05-04T05:07:52.856Z,2.50
2018-05-04T05:10:20.319Z,2.60
2018-05-04T05:12:48.913Z,2.60
2018-05-04T05:15:16.361Z,2.70
2018-05-04T05:17:43.836Z,2.80
2018-05-04T05:20:11.323Z,2.90
2018-05-04T05:22:38.797Z,3.00
2018-05-04T05:25:07.025Z,3.10
2018-05-04T05:27:34.483Z,3.10
2018-05-04T05:30:01.966Z,3.10
2018-05-04T05:32:30.362Z,3.20
2018-05-04T05:34:58.577Z,3.30
2018-05-04T05:37:26.043Z,3.30
2018-05-04T05:39:53.516Z,3.40
2018-05-04T05:42:21.127Z,3.40
2018-05-04T05:44:48.561Z,3.50
2018-05-04T05:47:16.012Z,3.60
2018-05-04T05:49:43.497Z,3.60
2018-05-04T05:52:10.979Z,3.70
2018-05-04T05:54:39.278Z,3.80
2018-05-04T05:57:06.660Z,3.90
2018-05-04T05:59:34.137Z,4.00
2018-05-04T06:02:01.623Z,4.00
2018-05-04T06:04:29.089Z,4.10
2018-05-04T06:06:57.154Z,4.20
2018-05-04T06:09:24.660Z,4.40
2018-05-04T06:11:52.087Z,4.60
2018-05-04T06:14:19.604Z,4.70
2018-05-04T06:16:47.177Z,4.90
2018-05-04T06:19:14.621Z,5.00
2018-05-04T06:21:42.089Z,5.20
2018-05-04T06:24:09.547Z,5.30
2018-05-04T06:26:37.064Z,5.60
2018-05-04T06:29:05.280Z,6.00
2018-05-04T06:31:32.764Z,6.00
2018-05-04T06:34:00.208Z,6.20
2018-05-04T06:36:27.732Z,6.50
2018-05-04T06:38:55.215Z,6.80
2018-05-04T06:41:22.685Z,7.00
2018-05-04T06:43:50.141Z,7.30
2018-05-04T06:46:17.615Z,7.50
2018-05-04T06:48:45.123Z,7.60
2018-05-04T06:51:12.594Z,7.90
2018-05-04T06:53:40.062Z,8.00
2018-05-04T06:56:07.533Z,8.20
2018-05-04T06:58:35.008Z,8.40
2018-05-04T07:01:02.468Z,8.50
2018-05-04T07:03:29.988Z,8.80
2018-05-04T07:05:57.436Z,9.10
2018-05-04T07:08:24.900Z,9.40
2018-05-04T07:10:52.408Z,9.70
2018-05-04T07:13:19.888Z,10.00
2018-05-04T07:15:48.112Z,10.50
2018-05-04T07:18:15.570Z,10.50
2018-05-04T07:20:43.051Z,10.70
2018-05-04T07:23:10.500Z,10.80
2018-05-04T07:25:37.968Z,10.90
2018-05-04T07:28:05.421Z,11.00
2018-05-04T07:30:32.905Z,11.10
2018-05-04T07:33:01.136Z,11.30
2018-05-04T07:35:28.601Z,11.30
2018-05-04T07:37:56.060Z,11.40
2018-05-04T07:40:23.512Z,11.50
2018-05-04T07:42:50.985Z,11.60
2018-05-04T07:45:18.448Z,11.70
2018-05-04T07:47:46.695Z,11.90
2018-05-04T07:50:14.176Z,11.90
2018-05-04T07:52:41.708Z,12.00
2018-05-04T07:55:09.253Z,12.30
2018-05-04T07:57:36.649Z,12.50
2018-05-04T08:00:04.124Z,12.80
2018-05-04T08:02:32.344Z,13.20
2018-05-04T08:04:59.832Z,13.20
2018-05-04T08:07:27.292Z,13.50
2018-05-04T08:09:54.773Z,13.60
2018-05-04T08:12:22.996Z,13.60
2018-05-04T08:14:50.512Z,13.60
2018-05-04T08:17:17.971Z,13.70
2018-05-04T08:19:45.432Z,13.70
2018-05-04T08:22:12.937Z,13.90
2018-05-04T08:24:40.392Z,14.00
2018-05-04T08:27:07.860Z,14.10
2018-05-04T08:29:35.407Z,14.10
2018-05-04T08:32:02.856Z,14.20
2018-05-04T08:34:30.336Z,14.20
2018-05-04T08:36:57.800Z,14.30
2018-05-04T08:39:26.062Z,14.50
2018-05-04T08:41:53.620Z,14.50
2018-05-04T08:44:21.076Z,14.60
2018-05-04T08:46:48.622Z,14.60
2018-05-04T08:49:16.076Z,14.60
2018-05-04T08:51:43.524Z,14.60
2018-05-04T08:54:10.984Z,14.50
2018-05-04T08:56:38.479Z,14.60
2018-05-04T08:59:05.948Z,14.80
2018-05-04T09:01:34.190Z,16.00
2018-05-04T09:04:01.661Z,15.90
2018-05-04T09:06:29.140Z,16.60
2018-05-04T09:08:57.364Z,17.50
2018-05-04T09:11:24.860Z,17.50
2018-05-04T09:13:54.175Z,17.80
2018-05-04T09:16:22.539Z,18.50
2018-05-04T09:18:50.012Z,18.40
2018-05-04T09:21:18.249Z,19.30
2018-05-04T09:23:45.720Z,19.30
2018-05-04T09:26:13.192Z,19.70
2018-05-04T09:28:40.661Z,20.20
2018-05-04T09:31:08.104Z,20.40
2018-05-04T09:33:35.572Z,20.70
2018-05-04T09:36:03.031Z,21.00
2018-05-04T09:38:30.669Z,21.40
2018-05-04T09:40:58.112Z,21.80
2018-05-04T09:43:25.647Z,22.10
2018-05-04T09:45:53.031Z,22.40
2018-05-04T09:48:21.289Z,22.80
2018-05-04T09:50:48.758Z,22.70
2018-05-04T09:53:16.233Z,22.80
2018-05-04T09:55:43.688Z,22.90
2018-05-04T09:58:11.236Z,22.90
2018-05-04T10:00:38.704Z,22.90
2018-05-04T10:03:06.253Z,23.10
2018-05-04T10:05:33.814Z,23.10
2018-05-04T10:08:01.296Z,23.20
2018-05-04T10:10:29.508Z,23.20
2018-05-04T10:12:57.116Z,23.20
2018-05-04T10:15:24.589Z,23.30
2018-05-04T10:17:52.840Z,23.40
2018-05-04T10:20:20.309Z,23.40
2018-05-04T10:22:47.788Z,23.40
2018-05-04T10:25:15.236Z,23.40
2018-05-04T10:27:42.700Z,23.30
2018-05-04T10:30:10.169Z,23.20
2018-05-04T10:32:37.660Z,23.30
2018-05-04T10:35:05.150Z,23.30
2018-05-04T10:37:34.451Z,23.20
2018-05-04T10:40:02.116Z,23.40
2018-05-04T10:42:30.359Z,24.00
2018-05-04T10:44:57.843Z,23.90
2018-05-04T10:47:25.299Z,24.30
2018-05-04T10:49:52.758Z,24.50
2018-05-04T10:52:20.240Z,24.80
2018-05-04T10:54:48.464Z,25.30
2018-05-04T10:57:15.966Z,25.30
2018-05-04T10:59:43.412Z,25.60
2018-05-04T11:02:10.901Z,25.70
2018-05-04T11:04:38.376Z,25.60
2018-05-04T11:07:05.860Z,25.50
2018-05-04T11:09:33.321Z,25.30
2018-05-04T11:12:00.817Z,25.10
2018-05-04T11:14:28.249Z,25.10
2018-05-04T11:16:55.715Z,25.30
2018-05-04T11:19:23.247Z,25.50
2018-05-04T11:21:50.792Z,25.60
2018-05-04T11:24:18.281Z,25.70
2018-05-04T11:26:45.828Z,25.90
2018-05-04T11:29:13.313Z,26.10
2018-05-04T11:31:41.532Z,26.60
2018-05-04T11:34:09.162Z,26.60
2018-05-04T11:36:36.621Z,26.70
2018-05-04T11:39:04.250Z,26.90
2018-05-04T11:41:31.717Z,27.20
2018-05-04T11:43:59.197Z,27.50
2018-05-04T11:46:26.654Z,27.80
2018-05-04T11:48:54.124Z,28.00
2018-05-04T11:51:23.297Z,28.20
2018-05-04T11:53:51.536Z,28.30
2018-05-04T11:56:19.017Z,28.30
2018-05-04T11:58:46.496Z,28.30
2018-05-04T12:01:13.956Z,28.40
2018-05-04T12:03:41.575Z,28.60
2018-05-04T12:06:09.992Z,28.80
2018-05-04T12:08:37.677Z,28.90
2018-05-04T12:11:05.179Z,28.90
2018-05-04T12:13:32.651Z,28.80
2018-05-04T12:16:00.132Z,28.60
2018-05-04T12:18:27.717Z,28.70
2018-05-04T12:20:55.170Z,28.80
2018-05-04T12:23:22.645Z,28.90
2018-05-04T12:25:50.178Z,29.10
2018-05-04T12:28:17.700Z,29.40
2018-05-04T12:30:45.272Z,29.50
2018-05-04T12:33:13.513Z,29.40
2018-05-04T12:35:41.001Z,29.40
2018-05-04T12:38:09.275Z,29.10
2018-05-04T12:40:36.793Z,29.10
2018-05-04T12:43:04.251Z,29.20
2018-05-04T12:45:31.893Z,29.30
2018-05-04T12:47:59.369Z,29.40
2018-05-04T12:50:26.842Z,29.30
2018-05-04T12:52:54.329Z,29.20
2018-05-04T12:55:21.796Z,29.10
2018-05-04T12:57:50.013Z,29.10
2018-05-04T13:00:17.500Z,29.10
2018-05-04T13:02:44.952Z,29.30
2018-05-04T13:05:12.427Z,29.50
2018-05-04T13:07:39.904Z,29.40
2018-05-04T13:10:08.161Z,29.30
2018-05-04T13:12:35.624Z,29.30
2018-05-04T13:15:03.884Z,29.40
2018-05-04T13:17:31.334Z,29.40
2018-05-04T13:19:58.817Z,29.00
2018-05-04T13:22:26.272Z,28.80
2018-05-04T13:24:54.530Z,28.60
2018-05-04T13:27:21.986Z,28.60
2018-05-04T13:29:49.460Z,28.60
2018-05-04T13:32:16.916Z,28.60
2018-05-04T13:34:45.160Z,28.50
2018-05-04T13:37:12.634Z,28.50
2018-05-04T13:39:40.112Z,28.40
2018-05-04T13:42:07.564Z,28.40
2018-05-04T13:44:35.123Z,28.20
2018-05-04T13:47:02.505Z,28.20
2018-05-04T13:49:30.179Z,28.20
2018-05-04T13:51:57.641Z,28.20
2018-05-04T13:54:25.224Z,28.40
2018-05-04T13:56:52.687Z,28.60
2018-05-04T13:59:20.164Z,28.60
2018-05-04T14:01:47.664Z,28.50
2018-05-04T14:04:15.118Z,28.30
2018-05-04T14:06:42.568Z,28.10
2018-05-04T14:09:11.930Z,27.70
2018-05-04T14:11:39.396Z,27.60
2018-05-04T14:14:06.868Z,27.60
2018-05-04T14:16:34.323Z,27.60
2018-05-04T14:19:02.560Z,27.80
2018-05-04T14:21:30.024Z,27.80
2018-05-04T14:23:57.529Z,27.90
2018-05-04T14:26:25.926Z,27.90
2018-05-04T14:28:53.368Z,27.90
2018-05-04T14:31:20.840Z,27.80
2018-05-04T14:33:48.290Z,27.60
2018-05-04T14:36:15.755Z,27.20
2018-05-04T14:38:43.213Z,26.40
2018-05-04T14:41:10.700Z,25.60
2018-05-04T14:43:38.214Z,24.70
2018-05-04T14:46:05.688Z,23.80
2018-05-04T14:48:33.151Z,23.10
2018-05-04T14:51:00.604Z,22.50
2018-05-04T14:53:28.089Z,21.90
2018-05-04T14:55:55.548Z,21.60
2018-05-04T14:58:23.028Z,21.10
2018-05-04T15:00:51.267Z,20.50
2018-05-04T15:03:18.739Z,20.50
2018-05-04T15:05:46.222Z,20.20
2018-05-04T15:08:14.468Z,19.70
2018-05-04T15:10:42.698Z,19.50
2018-05-04T15:13:10.144Z,19.50
2018-05-04T15:15:37.633Z,19.30
2018-05-04T15:18:05.131Z,19.10
2018-05-04T15:20:32.565Z,18.90
2018-05-04T15:23:00.021Z,18.80
2018-05-04T15:25:27.501Z,18.70
2018-05-04T15:27:54.986Z,18.60
2018-05-04T15:30:22.467Z,18.50
2018-05-04T15:32:50.132Z,18.40
2018-05-04T15:35:17.608Z,18.30
2018-05-04T15:37:45.082Z,18.30
2018-05-04T15:40:12.544Z,18.20
2018-05-04T15:42:40.000Z,18.10
2018-05-04T15:45:07.484Z,18.00
2018-05-04T15:47:35.699Z,18.00
2018-05-04T15:50:08.852Z,17.90
2018-05-04T15:52:36.303Z,18.00
2018-05-04T15:55:04.715Z,17.80
2018-05-04T15:57:32.196Z,17.70
2018-05-04T15:59:59.903Z,17.70
2018-05-04T16:02:27.295Z,17.70
2018-05-04T16:04:54.773Z,17.60
2018-05-04T16:07:22.257Z,17.50
2018-05-04T16:09:49.713Z,17.50
2018-05-04T16:12:17.373Z,17.40
2018-05-04T16:14:44.932Z,17.30
2018-05-04T16:17:13.167Z,17.20
2018-05-04T16:19:40.639Z,17.20
2018-05-04T16:22:08.256Z,17.20
2018-05-04T16:24:35.661Z,17.20
2018-05-04T16:27:06.154Z,17.10
2018-05-04T16:29:33.726Z,17.10
2018-05-04T16:32:01.192Z,17.10
2018-05-04T16:34:28.648Z,17.10
2018-05-04T16:36:56.116Z,17.10
2018-05-04T16:39:23.576Z,17.00
2018-05-04T16:41:51.823Z,16.90
2018-05-04T16:44:19.298Z,16.90
2018-05-04T16:46:52.523Z,16.90
2018-05-04T16:49:26.446Z,16.80
2018-05-04T16:51:53.932Z,16.70
2018-05-04T16:54:21.499Z,16.70
2018-05-04T16:56:48.957Z,16.60
2018-05-04T16:59:16.464Z,16.50
2018-05-04T17:01:45.425Z,16.40
2018-05-04T17:04:12.883Z,16.30
2018-05-04T17:06:40.358Z,16.30
2018-05-04T17:09:07.862Z,16.30
2018-05-04T17:11:35.268Z,16.20
2018-05-04T17:14:02.720Z,16.20
2018-05-04T17:16:30.202Z,16.10
2018-05-04T17:18:57.666Z,16.00
2018-05-04T17:21:25.140Z,16.00
2018-05-04T17:23:53.362Z,15.90
2018-05-04T17:26:20.841Z,15.80
2018-05-04T17:28:48.316Z,15.80
2018-05-04T17:31:16.541Z,15.70
2018-05-04T17:33:44.003Z,15.70
2018-05-04T17:36:11.460Z,15.60
2018-05-04T17:38:38.939Z,15.50
2018-05-04T17:41:06.439Z,15.50
2018-05-04T17:43:34.677Z,15.30
2018-05-04T17:46:02.191Z,15.30
2018-05-04T17:48:29.750Z,15.20
2018-05-04T17:50:57.924Z,15.10
2018-05-04T17:53:25.384Z,15.10
2018-05-04T17:55:52.857Z,15.00
2018-05-04T17:58:20.333Z,14.90
2018-05-04T18:00:48.584Z,14.70
2018-05-04T18:03:16.063Z,14.70
2018-05-04T18:05:43.508Z,14.60
2018-05-04T18:08:10.965Z,14.50
2018-05-04T18:10:38.440Z,14.40
2018-05-04T18:13:05.889Z,14.30
2018-05-04T18:15:33.365Z,14.20
2018-05-04T18:18:02.372Z,14.10
2018-05-04T18:20:30.015Z,14.00
2018-05-04T18:22:57.464Z,14.00
2018-05-04T18:25:25.740Z,13.80
2018-05-04T18:27:53.227Z,13.80
2018-05-04T18:30:20.687Z,13.70
2018-05-04T18:32:48.910Z,13.60
2018-05-04T18:35:16.478Z,13.60
2018-05-04T18:37:43.927Z,13.50
2018-05-04T18:40:11.406Z,13.40
2018-05-04T18:42:38.956Z,13.30
2018-05-04T18:45:06.455Z,13.20
2018-05-04T18:47:34.697Z,13.00
2018-05-04T18:50:02.188Z,13.00
2018-05-04T18:52:30.464Z,12.80
2018-05-04T18:54:57.920Z,12.80
2018-05-04T18:57:26.164Z,12.60
2018-05-04T18:59:53.646Z,12.70
2018-05-04T19:02:27.470Z,12.50
2018-05-04T19:04:54.960Z,12.50
2018-05-04T19:07:22.429Z,12.40
2018-05-04T19:09:49.908Z,12.30
2018-05-04T19:12:17.361Z,12.20
2018-05-04T19:14:44.856Z,12.10
2018-05-04T19:17:12.336Z,12.00
2018-05-04T19:19:39.880Z,12.00
2018-05-04T19:22:08.675Z,11.70
2018-05-04T19:24:36.117Z,11.70
2018-05-04T19:27:03.620Z,11.60
2018-05-04T19:29:31.081Z,11.50
2018-05-04T19:31:58.583Z,11.40
2018-05-04T19:34:26.872Z,11.30
2018-05-04T19:36:54.284Z,11.30
2018-05-04T19:39:21.760Z,11.20
2018-05-04T19:41:49.240Z,11.10
2018-05-04T19:44:16.852Z,11.10
2018-05-04T19:46:44.326Z,11.00
2018-05-04T19:49:11.776Z,10.90
2018-05-04T19:51:39.273Z,10.90
2018-05-04T19:54:06.755Z,10.80
2018-05-04T19:56:34.212Z,10.70
2018-05-04T19:59:01.744Z,10.70
2018-05-04T20:01:29.916Z,10.50
2018-05-04T20:03:58.160Z,10.50
2018-05-04T20:06:25.620Z,10.40
2018-05-04T20:08:53.873Z,10.30
2018-05-04T20:11:21.343Z,10.30
2018-05-04T20:13:48.812Z,10.20
2018-05-04T20:16:17.144Z,10.00
2018-05-04T20:18:44.628Z,10.00
2018-05-04T20:21:12.109Z,10.00
2018-05-04T20:23:39.558Z,9.90
2018-05-04T20:26:07.813Z,9.80
2018-05-04T20:28:35.289Z,9.80
2018-05-04T20:31:02.745Z,9.70
2018-05-04T20:33:30.988Z,9.60
2018-05-04T20:35:58.450Z,9.60
2018-05-04T20:38:25.915Z,9.50
2018-05-04T20:40:53.363Z,9.50
2018-05-04T20:43:20.847Z,9.40
2018-05-04T20:45:48.296Z,9.40
2018-05-04T20:48:15.747Z,9.30
2018-05-04T20:50:43.212Z,9.20
2018-05-04T20:53:10.676Z,9.20
2018-05-04T20:55:38.122Z,9.10
2018-05-04T20:58:05.588Z,9.00
2018-05-04T21:00:33.056Z,9.00
2018-05-04T21:03:00.520Z,8.90
2018-05-04T21:05:27.991Z,8.80
2018-05-04T21:07:55.468Z,8.80
2018-05-04T21:10:22.928Z,8.70
2018-05-04T21:12:50.432Z,8.70
2018-05-04T21:15:17.890Z,8.60
2018-05-04T21:17:45.346Z,8.60
2018-05-04T21:20:12.809Z,8.50
2018-05-04T21:22:41.023Z,8.40
2018-05-04T21:25:08.461Z,8.40
2018-05-04T21:27:35.963Z,8.40
2018-05-04T21:30:03.453Z,8.30
2018-05-04T21:32:31.696Z,8.20
2018-05-04T21:34:59.147Z,8.20
2018-05-04T21:37:26.644Z,8.20
2018-05-04T21:39:54.872Z,8.10
2018-05-04T21:42:22.348Z,8.10
2018-05-04T21:44:49.881Z,8.00
2018-05-04T21:47:17.290Z,8.00
2018-05-04T21:49:44.742Z,7.90
2018-05-04T21:52:12.203Z,7.80
2018-05-04T21:54:40.433Z,7.80
2018-05-04T21:57:07.911Z,7.80
2018-05-04T21:59:35.364Z,7.70
2018-05-04T22:02:02.908Z,7.70
2018-05-04T22:04:30.364Z,7.60
2018-05-04T22:06:57.825Z,7.60
2018-05-04T22:09:26.054Z,7.50
2018-05-04T22:11:53.504Z,7.50
2018-05-04T22:14:21.747Z,7.40
2018-05-04T22:16:49.221Z,7.50
2018-05-04T22:19:16.717Z,7.40
2018-05-04T22:21:44.165Z,7.40
2018-05-04T22:24:11.616Z,7.30
2018-05-04T22:29:12.848Z,7.20
2018-05-04T22:31:40.320Z,7.20
2018-05-04T22:34:07.776Z,7.20
2018-05-04T22:36:36.037Z,7.10
2018-05-04T22:39:03.493Z,7.00
2018-05-04T22:41:30.976Z,7.00
2018-05-04T22:43:58.444Z,7.00
2018-05-04T22:46:26.696Z,6.90
2018-05-04T22:48:54.142Z,6.90
2018-05-04T22:51:21.615Z,6.90
2018-05-04T22:53:49.834Z,6.80
2018-05-04T22:56:18.090Z,6.80
2018-05-04T22:58:45.568Z,6.80
2018-05-04T23:01:13.023Z,6.80
2018-05-04T23:03:40.515Z,6.80
2018-05-04T23:06:07.966Z,6.80
2018-05-04T23:08:35.439Z,6.70
2018-05-04T23:11:02.906Z,6.70
2018-05-04T23:13:31.147Z,6.70
2018-05-04T23:15:58.612Z,6.70
2018-05-04T23:18:26.169Z,6.70
2018-05-04T23:20:53.591Z,6.60
2018-05-04T23:23:21.048Z,6.60
2018-05-04T23:25:48.524Z,6.60
2018-05-04T23:28:15.989Z,6.50
2018-05-04T23:30:43.476Z,6.50
2018-05-04T23:33:11.700Z,6.40
2018-05-04T23:35:39.268Z,6.40
2018-05-04T23:38:06.708Z,6.40
2018-05-04T23:40:34.300Z,6.40
2018-05-04T23:43:01.745Z,6.30
2018-05-04T23:45:29.215Z,6.30
2018-05-04T23:47:56.680Z,6.30
2018-05-04T23:50:24.176Z,6.20
2018-05-04T23:52:51.655Z,6.20
2018-05-04T23:55:19.112Z,6.10
2018-05-04T23:57:46.588Z,6.10
